createdAt,value
2023-05-03T00:00:18.383Z,13.40
2023-05-03T00:01:50.643Z,15.80
2023-05-03T00:03:25.697Z,11.30
2023-05-03T00:04:57.706Z,12.20
2023-05-03T00:06:30.013Z,15.10
2023-05-03T00:08:02.373Z,12.90
2023-05-03T00:09:37.753Z,12.60
2023-05-03T00:11:10.280Z,11.00
2023-05-03T00:12:44.517Z,14.50
2023-05-03T00:14:16.211Z,12.00
2023-05-03T00:15:47.907Z,22.00
2023-05-03T00:17:19.706Z,14.30
2023-05-03T00:18:51.405Z,10.70
2023-05-03T00:20:23.190Z,13.70
2023-05-03T00:21:54.910Z,11.10
2023-05-03T00:23:28.360Z,12.70
2023-05-03T00:25:00.951Z,12.80
2023-05-03T00:26:33.400Z,12.30
2023-05-03T00:28:05.701Z,11.20
2023-05-03T00:29:37.385Z,10.10
2023-05-03T00:31:11.375Z,14.00
2023-05-03T00:32:43.180Z,11.80
2023-05-03T00:34:14.958Z,12.60
2023-05-03T00:35:46.779Z,12.20
2023-05-03T00:37:18.517Z,11.60
2023-05-03T00:38:50.755Z,13.60
2023-05-03T00:40:22.525Z,14.00
2023-05-03T00:42:00.600Z,12.40
2023-05-03T00:43:33.148Z,11.70
2023-05-03T00:45:06.762Z,11.70
2023-05-03T00:46:38.680Z,12.00
2023-05-03T00:48:12.461Z,12.70
2023-05-03T00:49:44.824Z,11.40
2023-05-03T00:51:18.673Z,13.10
2023-05-03T00:52:51.749Z,12.10
2023-05-03T00:54:23.636Z,12.50
2023-05-03T00:55:55.758Z,12.00
2023-05-03T00:57:29.816Z,12.00
2023-05-03T00:59:02.041Z,9.70
2023-05-03T01:00:34.125Z,9.70
2023-05-03T01:02:06.839Z,10.00
2023-05-03T01:03:41.667Z,13.40
2023-05-03T01:05:14.357Z,14.20
2023-05-03T01:07:04.197Z,13.30
2023-05-03T01:08:43.706Z,10.20
2023-05-03T01:10:33.444Z,12.50
2023-05-03T01:12:11.999Z,10.30
2023-05-03T01:14:01.327Z,12.50
2023-05-03T01:15:46.044Z,12.60
2023-05-03T01:17:27.114Z,11.50
2023-05-03T01:19:06.889Z,11.30
2023-05-03T01:20:43.615Z,10.90
2023-05-03T01:22:43.568Z,10.30
2023-05-03T01:24:24.172Z,14.90
2023-05-03T01:25:56.586Z,10.90
2023-05-03T01:27:28.364Z,13.40
2023-05-03T01:29:02.877Z,14.20
2023-05-03T01:30:36.294Z,13.50
2023-05-03T01:32:17.717Z,11.80
2023-05-03T01:34:17.549Z,14.50
2023-05-03T01:36:13.050Z,17.50
2023-05-03T01:37:45.063Z,14.40
2023-05-03T01:39:26.914Z,14.50
2023-05-03T01:41:04.028Z,18.00
2023-05-03T01:42:38.730Z,22.60
2023-05-03T01:44:12.154Z,17.30
2023-05-03T01:45:46.238Z,21.20
2023-05-03T01:47:18.150Z,19.00
2023-05-03T01:48:50.025Z,18.80
2023-05-03T01:50:21.868Z,20.80
2023-05-03T01:51:53.776Z,21.30
2023-05-03T01:53:25.651Z,18.20
2023-05-03T01:54:57.498Z,19.90
2023-05-03T01:56:31.728Z,17.90
2023-05-03T01:58:03.590Z,20.70
2023-05-03T01:59:35.417Z,17.40
2023-05-03T02:01:08.093Z,17.50
2023-05-03T02:02:40.016Z,22.00
2023-05-03T02:04:12.271Z,20.40
2023-05-03T02:05:44.175Z,19.00
2023-05-03T02:07:15.857Z,17.20
2023-05-03T02:08:47.575Z,21.50
2023-05-03T02:10:19.515Z,21.80
2023-05-03T02:11:51.871Z,21.10
2023-05-03T02:13:23.663Z,22.70
2023-05-03T02:14:55.779Z,18.30
2023-05-03T02:16:27.710Z,18.40
2023-05-03T02:18:02.695Z,18.10
2023-05-03T02:19:34.980Z,18.50
2023-05-03T02:21:06.855Z,18.60
2023-05-03T02:22:39.073Z,25.80
2023-05-03T02:24:10.892Z,15.90
2023-05-03T02:25:42.687Z,21.70
2023-05-03T02:27:14.976Z,17.70
2023-05-03T02:28:47.732Z,16.70
2023-05-03T02:30:19.534Z,17.10
2023-05-03T02:31:54.306Z,16.90
2023-05-03T02:33:26.086Z,15.50
2023-05-03T02:34:57.791Z,15.00
2023-05-03T02:36:30.031Z,16.30
2023-05-03T02:38:02.479Z,17.10
2023-05-03T02:39:34.271Z,16.30
2023-05-03T02:41:06.184Z,14.80
2023-05-03T02:42:38.297Z,15.50
2023-05-03T02:44:10.244Z,15.90
2023-05-03T02:45:44.200Z,19.20
2023-05-03T02:47:16.591Z,16.50
2023-05-03T02:48:48.871Z,19.60
2023-05-03T02:50:20.965Z,17.70
2023-05-03T02:51:53.234Z,17.90
2023-05-03T02:53:25.073Z,18.10
2023-05-03T02:54:57.496Z,22.90
2023-05-03T02:56:29.442Z,22.30
2023-05-03T02:58:01.427Z,25.30
2023-05-03T02:59:33.348Z,22.60
2023-05-03T03:01:05.486Z,24.90
2023-05-03T03:02:37.349Z,23.90
2023-05-03T03:04:09.997Z,26.70
2023-05-03T03:05:41.839Z,22.10
2023-05-03T03:07:13.564Z,21.60
2023-05-03T03:08:45.397Z,22.10
2023-05-03T03:10:17.886Z,19.00
2023-05-03T03:11:52.742Z,23.70
2023-05-03T03:13:24.756Z,20.50
2023-05-03T03:14:56.580Z,24.50
2023-05-03T03:16:28.622Z,21.70
2023-05-03T03:18:01.070Z,25.20
2023-05-03T03:19:32.915Z,19.40
2023-05-03T03:21:04.684Z,19.60
2023-05-03T03:22:37.017Z,24.00
2023-05-03T03:24:08.924Z,18.20
2023-05-03T03:25:42.383Z,16.00
2023-05-03T03:27:14.178Z,21.00
2023-05-03T03:28:46.464Z,17.20
2023-05-03T03:30:18.542Z,15.30
2023-05-03T03:31:57.296Z,21.70
2023-05-03T03:33:29.126Z,16.40
2023-05-03T03:35:02.473Z,16.40
2023-05-03T03:36:37.028Z,15.90
2023-05-03T03:38:08.894Z,17.40
2023-05-03T03:39:41.107Z,18.00
2023-05-03T03:41:13.080Z,17.40
2023-05-03T03:42:44.855Z,16.20
2023-05-03T03:44:16.571Z,15.60
2023-05-03T03:45:48.539Z,17.10
2023-05-03T03:47:20.703Z,18.60
2023-05-03T03:48:52.574Z,13.90
2023-05-03T03:50:27.212Z,14.10
2023-05-03T03:51:59.114Z,15.20
2023-05-03T03:53:31.254Z,14.90
2023-05-03T03:55:03.254Z,18.40
2023-05-03T03:56:35.502Z,13.70
2023-05-03T03:58:07.536Z,16.10
2023-05-03T03:59:39.437Z,16.50
2023-05-03T04:01:12.276Z,15.10
2023-05-03T04:13:08.853Z,16.80
2023-05-03T04:14:41.044Z,15.00
2023-05-03T04:16:13.230Z,14.90
2023-05-03T04:17:45.360Z,18.10
2023-05-03T04:19:18.616Z,13.80
2023-05-03T04:20:51.672Z,14.10
2023-05-03T04:22:23.493Z,14.30
2023-05-03T04:23:55.828Z,12.10
2023-05-03T04:25:27.968Z,13.50
2023-05-03T04:27:04.504Z,13.90
2023-05-03T04:28:39.071Z,14.20
2023-05-03T04:30:14.053Z,12.80
2023-05-03T04:31:46.965Z,15.60
2023-05-03T04:33:21.529Z,15.10
2023-05-03T04:34:54.717Z,14.90
2023-05-03T04:36:29.842Z,15.30
2023-05-03T04:38:03.253Z,13.30
2023-05-03T04:39:35.682Z,12.70
2023-05-03T04:41:07.405Z,13.20
2023-05-03T04:42:39.548Z,13.90
2023-05-03T04:44:11.801Z,15.40
2023-05-03T04:45:43.686Z,12.10
2023-05-03T04:47:19.373Z,13.90
2023-05-03T04:48:51.548Z,12.70
2023-05-03T04:50:23.433Z,13.80
2023-05-03T04:51:56.431Z,12.20
2023-05-03T04:53:29.346Z,11.80
2023-05-03T04:55:08.350Z,15.60
2023-05-03T04:56:40.496Z,13.60
2023-05-03T04:58:16.540Z,12.50
2023-05-03T04:59:50.279Z,16.40
2023-05-03T05:01:28.000Z,12.40
2023-05-03T05:03:02.548Z,11.30
2023-05-03T05:04:35.586Z,11.90
2023-05-03T05:06:09.901Z,12.70
2023-05-03T05:07:42.363Z,10.00
2023-05-03T05:09:28.054Z,16.00
2023-05-03T05:11:04.535Z,12.10
2023-05-03T05:12:36.698Z,12.40
2023-05-03T05:14:09.080Z,11.50
2023-05-03T05:15:40.854Z,11.50
2023-05-03T05:17:13.749Z,12.70
2023-05-03T05:18:46.942Z,11.30
2023-05-03T05:20:21.743Z,10.80
2023-05-03T05:21:54.937Z,11.70
2023-05-03T05:23:27.966Z,12.70
2023-05-03T05:24:59.949Z,14.40
2023-05-03T05:26:32.590Z,12.70
2023-05-03T05:28:04.839Z,14.00
2023-05-03T05:29:37.062Z,14.30
2023-05-03T05:31:09.213Z,10.60
2023-05-03T05:32:41.715Z,11.40
2023-05-03T05:34:15.162Z,12.70
2023-05-03T05:35:48.943Z,12.10
2023-05-03T05:37:23.204Z,12.90
2023-05-03T05:38:55.026Z,11.00
2023-05-03T05:40:27.025Z,16.30
2023-05-03T05:42:01.396Z,12.30
2023-05-03T05:43:33.277Z,12.30
2023-05-03T05:45:08.143Z,12.70
2023-05-03T05:46:40.631Z,10.40
2023-05-03T05:48:12.623Z,10.80
2023-05-03T05:49:44.542Z,12.90
2023-05-03T05:51:17.131Z,11.10
2023-05-03T05:52:53.069Z,13.90
2023-05-03T05:54:25.112Z,19.50
2023-05-03T05:55:56.959Z,9.80
2023-05-03T05:57:28.793Z,10.60
2023-05-03T05:59:00.997Z,10.80
2023-05-03T06:00:33.163Z,10.70
2023-05-03T06:02:05.750Z,12.10
2023-05-03T06:03:37.574Z,9.50
2023-05-03T06:05:11.985Z,12.50
2023-05-03T06:06:43.881Z,11.50
2023-05-03T06:08:15.885Z,10.40
2023-05-03T06:09:48.127Z,11.10
2023-05-03T06:11:19.840Z,10.60
2023-05-03T06:12:52.017Z,13.90
2023-05-03T06:14:27.808Z,11.50
2023-05-03T06:15:59.752Z,12.60
2023-05-03T06:17:31.904Z,11.20
2023-05-03T06:19:05.101Z,12.50
2023-05-03T06:20:37.458Z,13.00
2023-05-03T06:22:09.347Z,12.40
2023-05-03T06:23:41.168Z,10.60
2023-05-03T06:25:16.252Z,13.30
2023-05-03T06:26:50.620Z,17.40
2023-05-03T06:28:22.418Z,11.50
2023-05-03T06:29:56.764Z,14.50
2023-05-03T06:31:28.559Z,11.10
2023-05-03T06:33:00.892Z,11.60
2023-05-03T06:34:32.897Z,10.60
2023-05-03T06:36:05.406Z,10.10
2023-05-03T06:37:37.116Z,10.80
2023-05-03T06:39:09.548Z,11.10
2023-05-03T06:40:41.596Z,11.50
2023-05-03T06:42:13.561Z,11.00
2023-05-03T06:43:46.613Z,9.80
2023-05-03T06:45:18.794Z,12.30
2023-05-03T06:46:51.594Z,7.30
2023-05-03T06:48:23.915Z,10.00
2023-05-03T06:49:55.839Z,9.30
2023-05-03T06:51:33.066Z,10.20
2023-05-03T06:53:04.914Z,11.80
2023-05-03T06:54:36.890Z,8.70
2023-05-03T06:56:08.577Z,8.10
2023-05-03T06:57:42.495Z,11.20
2023-05-03T06:59:14.322Z,8.70
2023-05-03T07:00:46.758Z,8.80
2023-05-03T07:02:19.231Z,12.20
2023-05-03T07:03:50.976Z,9.20
2023-05-03T07:05:22.869Z,9.80
2023-05-03T07:06:56.813Z,8.00
2023-05-03T07:08:28.809Z,11.20
2023-05-03T07:10:00.864Z,7.40
2023-05-03T07:11:34.558Z,9.30
2023-05-03T07:13:06.524Z,7.40
2023-05-03T07:14:40.519Z,8.30
2023-05-03T07:16:12.339Z,8.50
2023-05-03T07:17:44.116Z,7.30
2023-05-03T07:19:15.940Z,7.90
2023-05-03T07:20:48.864Z,8.20
2023-05-03T07:22:21.386Z,6.80
2023-05-03T07:23:53.140Z,11.10
2023-05-03T07:25:25.111Z,6.40
2023-05-03T07:26:58.314Z,8.50
2023-05-03T07:28:30.275Z,6.30
2023-05-03T07:30:03.733Z,7.80
2023-05-03T07:31:36.649Z,8.30
2023-05-03T07:33:08.532Z,6.40
2023-05-03T07:34:40.436Z,8.40
2023-05-03T07:36:12.235Z,9.80
2023-05-03T07:37:44.823Z,6.10
2023-05-03T07:39:17.382Z,6.50
2023-05-03T07:40:49.340Z,7.10
2023-05-03T07:42:21.237Z,5.60
2023-05-03T07:43:53.022Z,4.90
2023-05-03T07:45:24.852Z,7.30
2023-05-03T07:46:56.650Z,7.70
2023-05-03T07:48:29.448Z,9.70
2023-05-03T07:50:02.202Z,7.40
2023-05-03T07:51:38.409Z,6.00
2023-05-03T07:53:12.567Z,7.40
2023-05-03T07:54:45.761Z,7.20
2023-05-03T07:56:17.625Z,6.50
2023-05-03T07:57:50.974Z,5.30
2023-05-03T07:59:22.806Z,7.10
2023-05-03T08:00:54.591Z,7.00
2023-05-03T08:02:27.276Z,8.30
2023-05-03T08:04:00.043Z,9.20
2023-05-03T08:05:32.723Z,7.60
2023-05-03T08:07:04.710Z,7.30
2023-05-03T08:08:36.603Z,6.90
2023-05-03T08:10:09.391Z,8.80
2023-05-03T08:11:43.794Z,10.50
2023-05-03T08:13:17.212Z,5.50
2023-05-03T08:14:48.964Z,7.80
2023-05-03T08:16:21.421Z,5.40
2023-05-03T08:17:53.683Z,5.80
2023-05-03T08:19:26.090Z,7.50
2023-05-03T08:20:58.690Z,4.50
2023-05-03T08:22:30.516Z,5.20
2023-05-03T08:24:02.731Z,6.20
2023-05-03T08:25:37.069Z,7.30
2023-05-03T08:27:10.115Z,9.90
2023-05-03T08:28:42.568Z,4.50
2023-05-03T08:30:14.717Z,7.40
2023-05-03T08:31:46.536Z,7.00
2023-05-03T08:33:18.340Z,5.40
2023-05-03T08:34:50.604Z,5.10
2023-05-03T08:36:22.905Z,4.60
2023-05-03T08:37:54.583Z,4.30
2023-05-03T08:39:26.800Z,5.70
2023-05-03T08:41:15.491Z,7.60
2023-05-03T08:42:47.259Z,7.70
2023-05-03T08:44:27.314Z,6.60
2023-05-03T08:45:59.342Z,4.90
2023-05-03T08:47:35.996Z,7.80
2023-05-03T08:49:09.049Z,6.90
2023-05-03T08:50:44.086Z,6.50
2023-05-03T08:52:21.110Z,5.60
2023-05-03T08:53:53.020Z,6.60
2023-05-03T08:55:24.702Z,6.40
2023-05-03T08:56:56.592Z,6.70
2023-05-03T08:58:28.564Z,4.90
2023-05-03T09:00:03.095Z,8.70
2023-05-03T09:01:41.322Z,5.50
2023-05-03T09:03:13.662Z,5.80
2023-05-03T09:04:45.922Z,5.60
2023-05-03T09:06:26.382Z,5.10
2023-05-03T09:08:13.587Z,4.90
2023-05-03T09:09:47.303Z,7.00
2023-05-03T09:11:23.892Z,8.30
2023-05-03T09:13:03.274Z,8.00
2023-05-03T09:14:46.558Z,8.50
2023-05-03T09:16:24.895Z,6.90
2023-05-03T09:18:19.746Z,8.30
2023-05-03T09:19:57.855Z,6.90
2023-05-03T09:21:31.625Z,5.40
2023-05-03T09:23:03.667Z,7.10
2023-05-03T09:24:35.632Z,5.00
2023-05-03T09:26:07.397Z,5.90
2023-05-03T09:27:39.281Z,5.90
2023-05-03T09:29:11.659Z,7.50
2023-05-03T09:30:45.148Z,5.30
2023-05-03T09:32:18.285Z,7.90
2023-05-03T09:33:50.136Z,8.70
2023-05-03T09:35:22.087Z,8.40
2023-05-03T09:36:55.061Z,8.00
2023-05-03T09:38:32.216Z,6.70
2023-05-03T09:40:11.661Z,6.30
2023-05-03T09:41:43.581Z,7.30
2023-05-03T09:43:18.106Z,6.60
2023-05-03T09:44:53.898Z,6.50
2023-05-03T09:46:26.306Z,7.00
2023-05-03T09:47:58.327Z,5.80
2023-05-03T09:49:32.957Z,5.00
2023-05-03T09:51:06.123Z,6.90
2023-05-03T09:52:40.403Z,5.70
2023-05-03T09:54:12.791Z,6.80
2023-05-03T09:55:45.042Z,7.80
2023-05-03T09:57:17.534Z,8.30
2023-05-03T09:58:49.309Z,6.90
2023-05-03T10:00:22.021Z,4.80
2023-05-03T10:02:01.801Z,7.10
2023-05-03T10:03:50.309Z,5.10
2023-05-03T10:05:22.962Z,5.70
2023-05-03T10:07:12.582Z,4.80
2023-05-03T10:09:40.233Z,7.10
2023-05-03T10:11:17.264Z,6.10
2023-05-03T10:12:50.151Z,7.90
2023-05-03T10:14:22.756Z,5.30
2023-05-03T10:16:04.004Z,6.30
2023-05-03T10:19:29.940Z,7.30
2023-05-03T10:21:14.717Z,6.50
2023-05-03T10:23:04.914Z,5.70
2023-05-03T10:25:01.673Z,6.00
2023-05-03T10:26:33.861Z,5.90
2023-05-03T10:28:10.078Z,7.70
2023-05-03T10:29:46.202Z,8.20
2023-05-03T10:31:48.940Z,6.60
2023-05-03T10:33:21.526Z,6.60
2023-05-03T10:35:00.862Z,10.80
2023-05-03T10:36:48.517Z,6.30
2023-05-03T10:38:27.949Z,6.20
2023-05-03T10:40:13.994Z,6.80
2023-05-03T10:42:08.291Z,5.00
2023-05-03T10:43:39.986Z,6.30
2023-05-03T10:45:48.390Z,7.90
2023-05-03T10:47:24.970Z,5.50
2023-05-03T10:49:19.794Z,5.90
2023-05-03T10:50:52.731Z,6.10
2023-05-03T10:52:53.814Z,5.90
2023-05-03T10:54:25.692Z,7.10
2023-05-03T10:56:10.049Z,5.60
2023-05-03T10:57:46.819Z,5.90
2023-05-03T10:59:19.405Z,8.10
2023-05-03T11:00:52.249Z,6.70
2023-05-03T11:02:32.398Z,8.10
2023-05-03T11:04:20.962Z,5.50
2023-05-03T11:05:54.041Z,8.80
2023-05-03T11:07:25.956Z,5.80
2023-05-03T11:08:58.363Z,5.30
2023-05-03T11:10:30.097Z,7.40
2023-05-03T11:12:07.124Z,5.70
2023-05-03T11:13:39.071Z,8.10
2023-05-03T11:15:12.439Z,7.50
2023-05-03T11:16:51.097Z,7.10
2023-05-03T11:18:27.236Z,6.40
2023-05-03T11:19:59.513Z,7.70
2023-05-03T11:21:33.081Z,4.80
2023-05-03T11:23:07.124Z,6.90
2023-05-03T11:24:38.971Z,8.60
2023-05-03T11:26:12.044Z,6.60
2023-05-03T11:27:45.653Z,8.50
2023-05-03T11:29:19.567Z,6.50
2023-05-03T11:30:51.419Z,5.10
2023-05-03T11:32:27.700Z,5.50
2023-05-03T11:33:59.943Z,7.40
2023-05-03T11:35:33.174Z,6.60
2023-05-03T11:37:05.241Z,5.80
2023-05-03T11:38:39.785Z,8.30
2023-05-03T11:40:17.085Z,6.20
2023-05-03T11:42:04.986Z,7.20
2023-05-03T11:44:00.591Z,8.50
2023-05-03T11:45:46.162Z,7.10
2023-05-03T11:47:18.644Z,6.80
2023-05-03T11:48:50.995Z,8.10
2023-05-03T11:50:57.818Z,7.20
2023-05-03T11:52:30.483Z,8.00
2023-05-03T11:54:16.936Z,7.10
2023-05-03T11:55:56.026Z,7.00
2023-05-03T11:57:27.802Z,8.00
2023-05-03T11:59:00.358Z,7.00
2023-05-03T12:00:32.282Z,6.20
2023-05-03T12:02:05.721Z,6.90
2023-05-03T12:03:39.321Z,5.40
2023-05-03T12:05:13.218Z,7.80
2023-05-03T12:06:52.781Z,6.00
2023-05-03T12:08:36.292Z,8.20
2023-05-03T12:10:23.552Z,7.70
2023-05-03T12:11:59.143Z,9.10
2023-05-03T12:13:39.330Z,7.90
2023-05-03T12:15:16.452Z,6.30
2023-05-03T12:16:52.155Z,8.00
2023-05-03T12:18:24.753Z,7.70
2023-05-03T12:22:04.737Z,6.60
2023-05-03T12:23:46.092Z,7.80
2023-05-03T12:25:20.429Z,10.30
2023-05-03T12:26:53.688Z,7.20
2023-05-03T12:28:26.188Z,6.20
2023-05-03T12:29:59.339Z,7.00
2023-05-03T12:31:34.785Z,6.30
2023-05-03T12:33:09.835Z,6.80
2023-05-03T12:34:42.826Z,6.60
2023-05-03T12:36:16.674Z,6.90
2023-05-03T12:37:50.612Z,5.40
2023-05-03T12:39:22.773Z,6.20
2023-05-03T12:40:56.161Z,10.30
2023-05-03T12:42:29.071Z,6.90
2023-05-03T12:44:04.488Z,8.00
2023-05-03T12:45:40.219Z,4.80
2023-05-03T12:47:16.896Z,8.80
2023-05-03T12:48:55.211Z,8.70
2023-05-03T12:50:30.841Z,6.20
2023-05-03T12:52:35.543Z,8.20
2023-05-03T12:54:01.633Z,8.00
2023-05-03T12:55:35.757Z,7.70
2023-05-03T12:57:15.523Z,7.30
2023-05-03T13:00:25.833Z,8.00
2023-05-03T13:03:34.494Z,7.90
2023-05-03T13:05:24.667Z,9.00
2023-05-03T13:07:12.625Z,7.10
2023-05-03T13:08:50.001Z,8.00
2023-05-03T13:10:23.106Z,10.50
2023-05-03T13:11:55.475Z,6.80
2023-05-03T13:13:28.518Z,9.50
2023-05-03T13:15:03.904Z,8.40
2023-05-03T13:16:38.556Z,8.50
2023-05-03T13:18:10.542Z,7.10
2023-05-03T13:19:45.186Z,9.60
2023-05-03T13:21:16.962Z,6.80
2023-05-03T13:22:49.505Z,8.60
2023-05-03T13:24:21.350Z,6.90
2023-05-03T13:25:54.290Z,8.90
2023-05-03T13:27:26.599Z,10.00
2023-05-03T13:28:59.419Z,9.30
2023-05-03T13:30:31.546Z,10.30
2023-05-03T13:32:03.882Z,8.30
2023-05-03T13:33:38.161Z,11.30
2023-05-03T13:35:10.401Z,9.20
2023-05-03T13:36:42.208Z,8.30
2023-05-03T13:38:14.376Z,8.80
2023-05-03T13:39:46.652Z,8.30
2023-05-03T13:41:20.090Z,8.60
2023-05-03T13:42:51.813Z,8.60
2023-05-03T13:44:25.467Z,8.40
2023-05-03T13:46:03.099Z,7.60
2023-05-03T13:47:59.659Z,7.90
2023-05-03T13:49:26.816Z,9.60
2023-05-03T13:50:58.827Z,8.50
2023-05-03T13:52:30.914Z,8.40
2023-05-03T13:54:07.586Z,8.70
2023-05-03T13:55:39.603Z,8.90
2023-05-03T13:57:11.556Z,8.60
2023-05-03T13:58:43.393Z,8.50
2023-05-03T14:00:16.248Z,8.90
2023-05-03T14:01:48.218Z,8.40
2023-05-03T14:03:20.339Z,8.60
2023-05-03T14:04:52.994Z,8.70
2023-05-03T14:06:24.843Z,7.60
2023-05-03T14:07:57.412Z,8.80
2023-05-03T14:09:30.686Z,8.60
2023-05-03T14:11:05.403Z,11.80
2023-05-03T14:12:38.207Z,9.70
2023-05-03T14:14:10.171Z,9.50
2023-05-03T14:15:45.911Z,8.90
2023-05-03T14:17:18.061Z,10.30
2023-05-03T14:18:52.255Z,8.60
2023-05-03T14:20:24.268Z,10.90
2023-05-03T14:21:59.186Z,8.70
2023-05-03T14:23:30.953Z,7.50
2023-05-03T14:25:02.878Z,8.10
2023-05-03T14:26:34.780Z,9.00
2023-05-03T14:28:06.623Z,8.10
2023-05-03T14:29:38.363Z,9.70
2023-05-03T14:31:13.201Z,7.10
2023-05-03T14:32:45.094Z,8.20
2023-05-03T14:34:17.138Z,7.90
2023-05-03T14:35:49.185Z,8.20
2023-05-03T14:37:21.446Z,8.60
2023-05-03T14:38:53.594Z,10.00
2023-05-03T14:40:25.774Z,9.00
2023-05-03T14:41:57.586Z,9.50
2023-05-03T14:43:29.496Z,9.60
2023-05-03T14:45:02.180Z,7.70
2023-05-03T14:46:34.430Z,8.80
2023-05-03T14:48:07.086Z,9.10
2023-05-03T14:49:42.034Z,9.40
2023-05-03T14:51:15.099Z,9.20
2023-05-03T14:52:46.917Z,10.00
2023-05-03T14:54:19.749Z,10.10
2023-05-03T14:55:53.432Z,9.60
2023-05-03T14:57:25.424Z,6.70
2023-05-03T14:58:57.099Z,9.30
2023-05-03T15:00:29.333Z,7.40
2023-05-03T15:02:02.131Z,9.50
2023-05-03T15:03:34.227Z,9.00
2023-05-03T15:05:07.378Z,9.30
2023-05-03T15:06:39.566Z,9.30
2023-05-03T15:08:15.296Z,8.80
2023-05-03T15:09:47.577Z,8.30
2023-05-03T15:11:19.496Z,7.20
2023-05-03T15:12:51.756Z,7.70
2023-05-03T15:14:23.757Z,9.30
2023-05-03T15:15:55.635Z,6.40
2023-05-03T15:17:27.513Z,11.10
2023-05-03T15:19:00.527Z,10.00
2023-05-03T15:20:32.461Z,10.80
2023-05-03T15:22:04.203Z,10.70
2023-05-03T15:23:36.172Z,8.60
2023-05-03T15:25:08.709Z,8.40
2023-05-03T15:26:40.502Z,10.10
2023-05-03T15:28:12.250Z,10.00
2023-05-03T15:29:43.966Z,9.40
2023-05-03T15:31:16.066Z,10.10
2023-05-03T15:32:48.126Z,11.00
2023-05-03T15:34:19.876Z,9.00
2023-05-03T15:35:51.792Z,9.30
2023-05-03T15:37:23.893Z,8.30
2023-05-03T15:38:55.714Z,8.70
2023-05-03T15:40:28.137Z,10.60
2023-05-03T15:41:59.882Z,9.40
2023-05-03T15:43:31.630Z,8.70
2023-05-03T15:45:06.063Z,10.80
2023-05-03T15:46:39.045Z,8.20
2023-05-03T15:48:11.945Z,9.30
2023-05-03T15:49:43.732Z,11.50
2023-05-03T15:51:15.659Z,10.00
2023-05-03T15:52:47.554Z,8.80
2023-05-03T15:54:19.572Z,10.00
2023-05-03T15:55:56.807Z,8.70
2023-05-03T15:57:30.185Z,8.40
2023-05-03T15:59:02.208Z,8.90
2023-05-03T16:00:34.596Z,8.40
2023-05-03T16:02:07.679Z,10.10
2023-05-03T16:03:39.722Z,9.80
2023-05-03T16:05:11.969Z,9.20
2023-05-03T16:06:44.055Z,10.50
2023-05-03T16:08:16.010Z,7.70
2023-05-03T16:09:48.068Z,11.70
2023-05-03T16:11:20.291Z,14.20
2023-05-03T16:12:52.117Z,10.60
2023-05-03T16:14:24.850Z,9.60
2023-05-03T16:15:57.020Z,11.00
2023-05-03T16:17:29.155Z,10.70
2023-05-03T16:19:01.143Z,8.10
2023-05-03T16:20:33.639Z,9.30
2023-05-03T16:22:05.854Z,10.10
2023-05-03T16:23:37.702Z,9.80
2023-05-03T16:25:12.863Z,10.20
2023-05-03T16:26:44.772Z,9.70
2023-05-03T16:28:16.852Z,10.70
2023-05-03T16:29:48.701Z,9.80
2023-05-03T16:31:20.916Z,10.90
2023-05-03T16:32:53.634Z,11.40
2023-05-03T16:34:25.464Z,9.10
2023-05-03T16:35:57.275Z,8.00
2023-05-03T16:37:34.061Z,11.60
2023-05-03T16:39:05.822Z,9.10
2023-05-03T16:40:40.222Z,9.00
2023-05-03T16:42:12.699Z,9.90
2023-05-03T16:43:44.437Z,11.10
2023-05-03T16:45:16.977Z,11.20
2023-05-03T16:46:48.971Z,11.00
2023-05-03T16:48:22.002Z,10.00
2023-05-03T16:49:53.777Z,8.30
2023-05-03T16:51:25.666Z,8.80
2023-05-03T16:52:57.371Z,9.70
2023-05-03T16:54:29.211Z,8.80
2023-05-03T16:56:01.246Z,8.40
2023-05-03T16:57:33.436Z,9.80
2023-05-03T16:59:05.423Z,8.30
2023-05-03T17:00:37.358Z,9.60
2023-05-03T17:02:09.137Z,9.00
2023-05-03T17:03:42.536Z,9.70
2023-05-03T17:05:15.161Z,10.50
2023-05-03T17:06:47.268Z,8.90
2023-05-03T17:08:19.166Z,9.90
2023-05-03T17:09:51.250Z,9.30
2023-05-03T17:11:23.366Z,8.90
2023-05-03T17:12:56.627Z,10.70
2023-05-03T17:14:29.328Z,10.90
2023-05-03T17:16:07.205Z,9.70
2023-05-03T17:17:39.077Z,9.50
2023-05-03T17:19:11.143Z,9.80
2023-05-03T17:20:42.992Z,9.40
2023-05-03T17:22:15.089Z,8.90
2023-05-03T17:23:47.057Z,12.90
2023-05-03T17:25:19.100Z,9.80
2023-05-03T17:26:51.121Z,10.80
2023-05-03T17:28:23.047Z,9.80
2023-05-03T17:29:58.078Z,10.00
2023-05-03T17:31:30.183Z,8.70
2023-05-03T17:33:02.243Z,9.60
2023-05-03T17:34:34.077Z,10.20
2023-05-03T17:36:06.807Z,10.60
2023-05-03T17:37:39.254Z,11.40
2023-05-03T17:39:11.175Z,8.70
2023-05-03T17:40:44.479Z,7.90
2023-05-03T17:42:16.838Z,10.00
2023-05-03T17:43:49.735Z,9.80
2023-05-03T17:45:26.007Z,9.30
2023-05-03T17:46:57.822Z,9.30
2023-05-03T17:48:29.570Z,8.10
2023-05-03T17:50:01.502Z,8.60
2023-05-03T17:51:34.259Z,8.50
2023-05-03T17:53:09.652Z,10.60
2023-05-03T17:54:43.573Z,8.80
2023-05-03T17:56:18.570Z,7.80
2023-05-03T17:57:50.920Z,10.70
2023-05-03T17:59:22.999Z,8.30
2023-05-03T18:00:56.886Z,9.50
2023-05-03T18:02:31.077Z,9.60
2023-05-03T18:04:03.246Z,13.50
2023-05-03T18:05:37.303Z,9.20
2023-05-03T18:07:09.225Z,9.70
2023-05-03T18:08:41.623Z,11.40
2023-05-03T18:10:16.508Z,9.90
2023-05-03T18:11:49.320Z,7.00
2023-05-03T18:13:21.386Z,8.90
2023-05-03T18:14:59.418Z,11.20
2023-05-03T18:16:31.565Z,9.20
2023-05-03T18:18:03.782Z,8.00
2023-05-03T18:19:36.132Z,9.80
2023-05-03T18:21:11.455Z,10.00
2023-05-03T18:22:43.406Z,11.30
2023-05-03T18:24:16.091Z,8.80
2023-05-03T18:25:48.020Z,8.10
2023-05-03T18:27:22.167Z,11.70
2023-05-03T18:28:53.933Z,9.30
2023-05-03T18:30:29.327Z,11.70
2023-05-03T18:32:01.365Z,10.10
2023-05-03T18:33:33.962Z,11.10
2023-05-03T18:35:07.943Z,8.90
2023-05-03T18:36:39.845Z,8.60
2023-05-03T18:38:12.100Z,10.30
2023-05-03T18:39:44.372Z,8.90
2023-05-03T18:41:16.990Z,8.60
2023-05-03T18:42:49.523Z,10.30
2023-05-03T18:44:23.999Z,8.40
2023-05-03T18:45:55.990Z,9.30
2023-05-03T18:47:28.107Z,13.50
2023-05-03T18:49:03.869Z,10.90
2023-05-03T18:50:39.616Z,10.80
2023-05-03T18:52:11.713Z,9.60
2023-05-03T18:53:43.732Z,10.30
2023-05-03T18:55:15.998Z,8.50
2023-05-03T18:56:48.162Z,9.40
2023-05-03T18:58:19.947Z,13.60
2023-05-03T19:00:07.892Z,13.90
2023-05-03T19:01:39.916Z,10.40
2023-05-03T19:03:11.719Z,9.60
2023-05-03T19:04:43.646Z,10.10
2023-05-03T19:06:15.445Z,9.40
2023-05-03T19:07:48.272Z,9.90
2023-05-03T19:09:20.183Z,10.80
2023-05-03T19:10:51.936Z,8.80
2023-05-03T19:12:24.125Z,11.20
2023-05-03T19:13:55.935Z,9.80
2023-05-03T19:15:27.630Z,8.40
2023-05-03T19:16:59.594Z,11.30
2023-05-03T19:18:32.176Z,10.30
2023-05-03T19:20:06.556Z,9.30
2023-05-03T19:21:42.220Z,10.10
2023-05-03T19:23:14.109Z,9.50
2023-05-03T19:24:46.087Z,9.60
2023-05-03T19:26:17.985Z,14.00
2023-05-03T19:27:50.922Z,8.90
2023-05-03T19:29:23.216Z,9.50
2023-05-03T19:30:55.026Z,10.50
2023-05-03T19:32:27.062Z,11.00
2023-05-03T19:33:58.829Z,9.10
2023-05-03T19:35:30.528Z,9.90
2023-05-03T19:37:02.468Z,11.70
2023-05-03T19:38:38.327Z,10.00
2023-05-03T19:40:11.899Z,9.40
2023-05-03T19:41:43.747Z,10.60
2023-05-03T19:43:15.516Z,10.70
2023-05-03T19:44:47.301Z,10.10
2023-05-03T19:46:20.504Z,12.50
2023-05-03T19:47:52.356Z,11.30
2023-05-03T19:49:24.739Z,13.20
2023-05-03T19:50:56.551Z,11.00
2023-05-03T19:52:28.341Z,12.50
2023-05-03T19:54:03.528Z,10.90
2023-05-03T19:55:35.341Z,12.10
2023-05-03T19:57:07.611Z,9.50
2023-05-03T19:58:39.979Z,10.50
2023-05-03T20:00:15.044Z,14.50
2023-05-03T20:01:46.890Z,10.80
2023-05-03T20:03:19.422Z,11.70
2023-05-03T20:04:51.721Z,11.20
2023-05-03T20:06:23.558Z,12.30
2023-05-03T20:07:55.325Z,11.50
2023-05-03T20:09:27.229Z,12.00
2023-05-03T20:10:59.124Z,12.00
2023-05-03T20:12:31.173Z,13.60
2023-05-03T20:14:03.008Z,11.50
2023-05-03T20:15:36.567Z,11.60
2023-05-03T20:17:08.389Z,11.90
2023-05-03T20:18:40.175Z,9.90
2023-05-03T20:20:13.263Z,12.10
2023-05-03T20:21:45.259Z,10.80
2023-05-03T20:23:17.372Z,11.00
2023-05-03T20:24:50.663Z,11.50
2023-05-03T20:26:24.689Z,10.50
2023-05-03T20:27:56.377Z,12.70
2023-05-03T20:29:28.225Z,11.70
2023-05-03T20:30:59.957Z,10.30
2023-05-03T20:32:32.097Z,10.90
2023-05-03T20:34:04.049Z,12.20
2023-05-03T20:35:38.287Z,11.50
2023-05-03T20:37:10.670Z,12.60
2023-05-03T20:38:42.594Z,14.60
2023-05-03T20:40:14.647Z,9.90
2023-05-03T20:41:46.585Z,11.90
2023-05-03T20:43:18.739Z,12.80
2023-05-03T20:44:53.891Z,11.90
2023-05-03T20:46:27.193Z,11.60
2023-05-03T20:47:59.046Z,12.40